Map

Track Data

SID SEASON NUMBER BASIN SUBBASIN NAME ISO_TIME NATURE LAT LON WMO_WIND WMO_PRES WMO_AGENCY TRACK_TYPE DIST2LAND LANDFALL IFLAG USA_AGENCY USA_ATCF_ID USA_LAT USA_LON USA_RECORD USA_STATUS USA_WIND USA_PRES USA_SSHS USA_R34_NE USA_R34_SE USA_R34_SW USA_R34_NW USA_R50_NE USA_R50_SE USA_R50_SW USA_R50_NW USA_R64_NE USA_R64_SE USA_R64_SW USA_R64_NW USA_POCI USA_ROCI USA_RMW USA_EYE TOKYO_LAT TOKYO_LON TOKYO_GRADE TOKYO_WIND TOKYO_PRES TOKYO_R50_DIR TOKYO_R50_LONG TOKYO_R50_SHORT TOKYO_R30_DIR TOKYO_R30_LONG TOKYO_R30_SHORT TOKYO_LAND CMA_LAT CMA_LON CMA_CAT CMA_WIND CMA_PRES HKO_LAT HKO_LON HKO_CAT HKO_WIND HKO_PRES NEWDELHI_LAT NEWDELHI_LON NEWDELHI_GRADE NEWDELHI_WIND NEWDELHI_PRES NEWDELHI_CI NEWDELHI_DP NEWDELHI_POCI REUNION_LAT REUNION_LON REUNION_TYPE REUNION_WIND REUNION_PRES REUNION_TNUM REUNION_CI REUNION_RMW REUNION_R34_NE REUNION_R34_SE REUNION_R34_SW REUNION_R34_NW REUNION_R50_NE REUNION_R50_SE REUNION_R50_SW REUNION_R50_NW REUNION_R64_NE REUNION_R64_SE REUNION_R64_SW REUNION_R64_NW BOM_LAT BOM_LON BOM_TYPE BOM_WIND BOM_PRES BOM_TNUM BOM_CI BOM_RMW BOM_R34_NE BOM_R34_SE BOM_R34_SW BOM_R34_NW BOM_R50_NE BOM_R50_SE BOM_R50_SW BOM_R50_NW BOM_R64_NE BOM_R64_SE BOM_R64_SW BOM_R64_NW BOM_ROCI BOM_POCI BOM_EYE BOM_POS_METHOD BOM_PRES_METHOD NADI_LAT NADI_LON NADI_CAT NADI_WIND NADI_PRES WELLINGTON_LAT WELLINGTON_LON WELLINGTON_WIND WELLINGTON_PRES DS824_LAT DS824_LON DS824_STAGE DS824_WIND DS824_PRES TD9636_LAT TD9636_LON TD9636_STAGE TD9636_WIND TD9636_PRES TD9635_LAT TD9635_LON TD9635_WIND TD9635_PRES TD9635_ROCI NEUMANN_LAT NEUMANN_LON NEUMANN_CLASS NEUMANN_WIND NEUMANN_PRES MLC_LAT MLC_LON MLC_CLASS MLC_WIND MLC_PRES USA_GUST BOM_GUST BOM_GUST_PER REUNION_GUST REUNION_GUST_PER USA_SEAHGT USA_SEARAD_NE USA_SEARAD_SE USA_SEARAD_SW USA_SEARAD_NW STORM_SPEED STORM_DIR
2020259N09343 2020 74 NA NA WILFRED 2020-09-14 18:00:00 NR 8.70000 -17.4000 PROVISIONAL 352 352 O_____________ nhc_working_bt AL232020 8.70000 -17.4000 DB 20 -3 8 277
2020259N09343 2020 74 NA NA WILFRED 2020-09-14 21:00:00 NR 8.75006 -17.7900 PROVISIONAL 376 376 P_____________ AL232020 8.75006 -17.7900 DB 22 -3 8 277
2020259N09343 2020 74 NA NA WILFRED 2020-09-15 00:00:00 NR 8.80000 -18.2000 PROVISIONAL 404 404 O_____________ nhc_working_bt AL232020 8.80000 -18.2000 DB 25 1010 -3 1012 90 30 8 277
2020259N09343 2020 74 NA NA WILFRED 2020-09-15 03:00:00 NR 8.84997 -18.6425 PROVISIONAL 431 430 P_____________ AL232020 8.84997 -18.6425 DB 25 1010 -3 1012 90 30 9 276
2020259N09343 2020 74 NA NA WILFRED 2020-09-15 06:00:00 NR 8.90000 -19.1000 PROVISIONAL 462 462 O_____________ nhc_working_bt AL232020 8.90000 -19.1000 DB 25 1010 -3 1012 90 30 9 276
2020259N09343 2020 74 NA NA WILFRED 2020-09-15 09:00:00 NR 8.94247 -19.5575 PROVISIONAL 497 488 P_____________ AL232020 8.94247 -19.5575 DB 25 1010 -3 1012 90 30 9 276
2020259N09343 2020 74 NA NA WILFRED 2020-09-15 12:00:00 NR 9.00000 -20.0000 PROVISIONAL 517 517 O_____________ nhc_working_bt AL232020 9.00000 -20.0000 DB 25 1010 -3 1012 90 30 8 280
2020259N09343 2020 74 NA NA WILFRED 2020-09-15 15:00:00 NR 9.09241 -20.4000 PROVISIONAL 539 539 P_____________ AL232020 9.09241 -20.4000 DB 25 1010 -3 1012 90 30 8 284
2020259N09343 2020 74 NA NA WILFRED 2020-09-15 18:00:00 NR 9.20000 -20.8000 PROVISIONAL 565 565 O_____________ nhc_working_bt AL232020 9.20000 -20.8000 DB 25 1010 -3 1012 90 30 9 284
2020259N09343 2020 74 NA NA WILFRED 2020-09-15 21:00:00 NR 9.30002 -21.2575 PROVISIONAL 601 601 P_____________ AL232020 9.30002 -21.2575 DB 25 1010 -3 1012 90 30 9 283
2020259N09343 2020 74 NA NA WILFRED 2020-09-16 00:00:00 NR 9.40000 -21.7000 PROVISIONAL 632 632 O_____________ nhc_working_bt AL232020 9.40000 -21.7000 DB 25 1010 -3 1012 90 30 8 284
2020259N09343 2020 74 NA NA WILFRED 2020-09-16 03:00:00 NR 9.49239 -22.0576 PROVISIONAL 663 663 P_____________ AL232020 9.49239 -22.0576 DB 25 1010 -3 1012 90 30 7 286
2020259N09343 2020 74 NA NA WILFRED 2020-09-16 06:00:00 NR 9.60000 -22.4000 PROVISIONAL 687 687 O_____________ nhc_working_bt AL232020 9.60000 -22.4000 DB 25 1010 -3 1012 90 30 8 290
2020259N09343 2020 74 NA NA WILFRED 2020-09-16 09:00:00 NR 9.75748 -22.7924 PROVISIONAL 716 716 P_____________ AL232020 9.75748 -22.7924 DB 25 1010 -3 1012 90 40 8 291
2020259N09343 2020 74 NA NA WILFRED 2020-09-16 12:00:00 NR 9.90000 -23.2000 PROVISIONAL 752 752 O_____________ nhc_working_bt AL232020 9.90000 -23.2000 DB 25 1010 -3 1012 90 50 8 284
2020259N09343 2020 74 NA NA WILFRED 2020-09-16 15:00:00 NR 9.95736 -23.5776 PROVISIONAL 789 789 P_____________ AL232020 9.95736 -23.5776 DB 25 1010 -3 1012 90 50 8 277
2020259N09343 2020 74 NA NA WILFRED 2020-09-16 18:00:00 NR 10.0000 -24.0000 PROVISIONAL 830 830 O_____________ nhc_working_bt AL232020 10.0000 -24.0000 DB 25 1010 -3 1012 90 50 10 278
2020259N09343 2020 74 NA NA WILFRED 2020-09-16 21:00:00 NR 10.0851 -24.5575 PROVISIONAL 889 889 P_____________ AL232020 10.0851 -24.5575 DB 25 1010 -3 1012 90 40 11 280
2020259N09343 2020 74 NA NA WILFRED 2020-09-17 00:00:00 NR 10.2000 -25.1000 PROVISIONAL 938 938 O_____________ nhc_working_bt AL232020 10.2000 -25.1000 DB 25 1010 -3 1012 90 30 9 286
2020259N09343 2020 74 NA NA WILFRED 2020-09-17 03:00:00 NR 10.3423 -25.4800 PROVISIONAL 977 974 P_____________ AL232020 10.3423 -25.4800 DB 25 1010 -3 1012 90 30 8 294
2020259N09343 2020 74 NA NA WILFRED 2020-09-17 06:00:00 NR 10.5000 -25.8000 PROVISIONAL 1004 1004 O_____________ nhc_working_bt AL232020 10.5000 -25.8000 DB 25 1010 -3 1012 90 30 7 296
2020259N09343 2020 74 NA NA WILFRED 2020-09-17 09:00:00 NR 10.6498 -26.1126 PROVISIONAL 1033 1031 P_____________ AL232020 10.6498 -26.1126 DB 25 1010 -3 1012 90 30 8 294
2020259N09343 2020 74 NA NA WILFRED 2020-09-17 12:00:00 NR 10.8000 -26.5000 PROVISIONAL 1069 1069 O_____________ nhc_working_bt AL232020 10.8000 -26.5000 DB 25 1010 -3 1012 90 30 10 289
2020259N09343 2020 74 NA NA WILFRED 2020-09-17 15:00:00 NR 10.9650 -27.0474 PROVISIONAL 1110 1110 P_____________ AL232020 10.9650 -27.0474 DB 27 1008 -3 1012 120 30 12 284
2020259N09343 2020 74 NA NA WILFRED 2020-09-17 18:00:00 NR 11.1000 -27.7000 PROVISIONAL 1177 1177 O_____________ nhc_working_bt AL232020 11.1000 -27.7000 DB 30 1007 -3 1012 150 30 14 279
2020259N09343 2020 74 NA NA WILFRED 2020-09-17 21:00:00 NR 11.1726 -28.4150 PROVISIONAL 1244 1244 P_____________ AL232020 11.1726 -28.4150 DB 32 1007 -3 1012 195 70 14 274
2020259N09343 2020 74 NA NA WILFRED 2020-09-18 00:00:00 NR 11.2000 -29.1000 PROVISIONAL 1317 1317 O_____________ nhc_working_bt AL232020 11.2000 -29.1000 DB 35 1008 -3 130 1012 240 110 12 270
2020259N09343 2020 74 NA NA WILFRED 2020-09-18 03:00:00 NR 11.1695 -29.5928 PROVISIONAL 1368 1368 P_____________ AL232020 11.1695 -29.5928 DB 35 1008 -3 130 1012 240 100 10 270
2020259N09343 2020 74 NA NA WILFRED 2020-09-18 06:00:00 NR 11.2000 -30.1000 PROVISIONAL 1420 1420 O_____________ nhc_working_bt AL232020 11.2000 -30.1000 DB 35 1008 -3 130 1012 240 90 12 282
2020259N09343 2020 74 NA NA WILFRED 2020-09-18 09:00:00 NR 11.4273 -30.7823 PROVISIONAL 1487 1487 P_____________ AL232020 11.4273 -30.7823 DB 35 1008 -3 125 1012 225 90 16 289
2020259N09343 2020 74 NA NA WILFRED 2020-09-18 12:00:00 NR 11.7000 -31.6000 PROVISIONAL 1563 1563 O_____________ nhc_working_bt AL232020 11.7000 -31.6000 DB 35 1008 -3 120 1012 210 90 45 19 286
2020259N09343 2020 74 NA NA WILFRED 2020-09-18 15:00:00 NR 11.9469 -32.6198 PROVISIONAL 1664 1664 P_____________ AL232020 11.8502 -32.5428 DB 35 1008 -3 120 1012 210 90 20 284
2020259N09343 2020 74 NA NA WILFRED 2020-09-18 18:00:00 TS 12.1800 -33.6200 PROVISIONAL 1764 1764 O_____________ nhc_working_bt AL232020 12.0000 -33.5000 TS 35 1008 0 30 120 30 1012 210 90 45 19 283
2020259N09343 2020 74 NA NA WILFRED 2020-09-18 21:00:00 TS 12.3647 -34.4752 PROVISIONAL 1811 1797 P_____________ AL232020 12.2498 -34.3598 TS 35 1008 0 30 120 30 1012 210 90 15 282
2020259N09343 2020 74 NA NA WILFRED 2020-09-19 00:00:00 TS 12.5000 -35.1667 PROVISIONAL 1798 1792 O_____________ nhc_working_bt AL232020 12.5000 -35.1000 TS 35 1008 0 30 120 30 1012 210 90 45 12 283
2020259N09343 2020 74 NA NA WILFRED 2020-09-19 03:00:00 TS 12.6496 -35.7085 PROVISIONAL 1794 1794 P_____________ AL232020 12.6646 -35.6802 TS 35 1007 0 30 105 30 1012 210 90 11 287
2020259N09343 2020 74 NA NA WILFRED 2020-09-19 06:00:00 TS 12.8000 -36.2000 PROVISIONAL 1803 1798 O_____________ nhc_working_bt AL232020 12.8000 -36.2000 TS 35 1007 0 30 90 30 1012 210 90 45 11 285
2020259N09343 2020 74 NA NA WILFRED 2020-09-19 09:00:00 TS 12.9275 -36.7952 PROVISIONAL 1801 1799 P_____________ AL232020 12.9275 -36.8002 TS 35 1007 0 30 90 30 1011 195 90 12 284
2020259N09343 2020 74 NA NA WILFRED 2020-09-19 12:00:00 TS 13.1000 -37.4000 PROVISIONAL 1812 1784 O_____________ nhc_working_bt AL232020 13.1000 -37.4000 TS 35 1007 0 30 90 30 1011 180 90 45 12 292
2020259N09343 2020 74 NA NA WILFRED 2020-09-19 15:00:00 TS 13.3772 -37.9351 PROVISIONAL 1790 1755 P_____________ AL232020 13.3772 -37.9351 TS 35 1007 0 35 65 1011 180 65 12 299
2020259N09343 2020 74 NA NA WILFRED 2020-09-19 18:00:00 TS 13.7000 -38.5000 PROVISIONAL 1755 1724 O_____________ nhc_working_bt AL232020 13.7000 -38.5000 TS 35 1007 0 40 40 30 1011 180 40 45 12 30 30 30 13 298
2020259N09343 2020 74 NA NA WILFRED 2020-09-19 21:00:00 TS 13.9998 -39.1627 PROVISIONAL 1715 1678 P_____________ AL232020 13.9998 -39.1627 TS 35 1007 0 40 40 30 1011 165 40 12 45 45 15 294
2020259N09343 2020 74 NA NA WILFRED 2020-09-20 00:00:00 TS 14.3000 -39.9000 PROVISIONAL 1678 1645 O_____________ nhc_working_bt AL232020 14.3000 -39.9000 TS 35 1007 0 40 40 30 1012 150 40 45 12 60 60 16 293
2020259N09343 2020 74 NA NA WILFRED 2020-09-20 03:00:00 TS 14.5995 -40.6553 PROVISIONAL 1637 1607 P_____________ AL232020 14.5995 -40.6553 TS 35 1007 0 40 40 30 1012 150 40 12 60 45 17 291
2020259N09343 2020 74 NA NA WILFRED 2020-09-20 06:00:00 TS 14.9000 -41.5000 PROVISIONAL 1600 1562 O_____________ nhc_working_bt AL232020 14.9000 -41.5000 TS 35 1007 0 40 40 30 1012 150 40 45 12 60 30 19 289
2020259N09343 2020 74 NA NA WILFRED 2020-09-20 09:00:00 TS 15.2228 -42.4997 PROVISIONAL 1555 1520 P_____________ AL232020 15.2228 -42.4997 TS 32 1007 -1 1012 150 40 20 287
2020259N09343 2020 74 NA NA WILFRED 2020-09-20 12:00:00 TS 15.5000 -43.5000 PROVISIONAL 1517 1485 O_____________ nhc_working_bt AL232020 15.5000 -43.5000 TD 30 1008 -1 1012 150 40 40 18 285
2020259N09343 2020 74 NA NA WILFRED 2020-09-20 15:00:00 TS 15.6943 -44.3302 PROVISIONAL 1485 1442 P_____________ AL232020 15.6943 -44.3302 TD 30 1008 -1 1011 150 50 16 281
2020259N09343 2020 74 NA NA WILFRED 2020-09-20 18:00:00 TS 15.8000 -45.1000 PROVISIONAL 1442 1400 O_____________ nhc_working_bt AL232020 15.8000 -45.1000 TD 30 1008 -1 1010 150 60 40 12 60 15 275
2020259N09343 2020 74 NA NA WILFRED 2020-09-20 21:00:00 TS 15.8233 -45.8901 PROVISIONAL 1394 1350 P_____________ AL232020 15.8233 -45.8901 TD 30 1008 -1 1010 150 60 15 270
2020259N09343 2020 74 NA NA WILFRED 2020-09-21 00:00:00 TS 15.8000 -46.7000 PROVISIONAL 1350 O_____________ nhc_working_bt AL232020 15.8000 -46.7000 TD 30 1008 -1 1010 150 60 40 16 268

About IBTrACS Database

This database is a web-friendly format of International Best Track Archive for Climate Stewardship (IBTrACS), a global best track data archive curated by NOAA dating back to 1842.

Updated: 2021-10-25